sensor_id;sensor_type;location;lat;lon;timestamp;P1;durP1;ratioP1;P2;durP2;ratioP2
2462;SDS011;1243;54.298;10.172;2023-03-23T00:01:55;21.57;;;14.77;;
2462;SDS011;1243;54.298;10.172;2023-03-23T00:04:21;19.10;;;14.00;;
2462;SDS011;1243;54.298;10.172;2023-03-23T00:06:47;18.67;;;14.00;;
2462;SDS011;1243;54.298;10.172;2023-03-23T00:09:14;20.23;;;13.27;;
2462;SDS011;1243;54.298;10.172;2023-03-23T00:11:40;19.90;;;15.47;;
2462;SDS011;1243;54.298;10.172;2023-03-23T00:14:07;17.27;;;12.83;;
2462;SDS011;1243;54.298;10.172;2023-03-23T00:16:38;22.00;;;15.77;;
2462;SDS011;1243;54.298;10.172;2023-03-23T00:19:07;18.87;;;14.30;;
2462;SDS011;1243;54.298;10.172;2023-03-23T00:21:38;23.83;;;13.87;;
2462;SDS011;1243;54.298;10.172;2023-03-23T00:26:32;21.30;;;14.43;;
2462;SDS011;1243;54.298;10.172;2023-03-23T00:29:01;24.37;;;15.37;;
2462;SDS011;1243;54.298;10.172;2023-03-23T00:31:28;22.20;;;14.70;;
2462;SDS011;1243;54.298;10.172;2023-03-23T00:33:57;24.33;;;14.63;;
2462;SDS011;1243;54.298;10.172;2023-03-23T00:36:25;21.53;;;15.70;;
2462;SDS011;1243;54.298;10.172;2023-03-23T00:38:52;20.67;;;14.07;;
2462;SDS011;1243;54.298;10.172;2023-03-23T00:41:17;20.27;;;14.87;;
2462;SDS011;1243;54.298;10.172;2023-03-23T00:43:43;18.60;;;14.50;;
2462;SDS011;1243;54.298;10.172;2023-03-23T00:46:09;23.63;;;14.27;;
2462;SDS011;1243;54.298;10.172;2023-03-23T00:48:35;17.10;;;12.60;;
2462;SDS011;1243;54.298;10.172;2023-03-23T00:51:05;19.03;;;13.50;;
2462;SDS011;1243;54.298;10.172;2023-03-23T00:53:36;16.57;;;12.50;;
2462;SDS011;1243;54.298;10.172;2023-03-23T00:56:02;19.27;;;14.00;;
2462;SDS011;1243;54.298;10.172;2023-03-23T00:58:28;17.70;;;12.50;;
2462;SDS011;1243;54.298;10.172;2023-03-23T01:00:53;20.73;;;14.27;;
2462;SDS011;1243;54.298;10.172;2023-03-23T01:03:19;21.97;;;14.03;;
2462;SDS011;1243;54.298;10.172;2023-03-23T01:05:45;11.33;;;8.43;;
2462;SDS011;1243;54.298;10.172;2023-03-23T01:08:17;21.57;;;14.73;;
2462;SDS011;1243;54.298;10.172;2023-03-23T01:10:44;19.73;;;14.30;;
2462;SDS011;1243;54.298;10.172;2023-03-23T01:13:11;15.77;;;11.47;;
2462;SDS011;1243;54.298;10.172;2023-03-23T01:15:37;21.57;;;14.10;;
2462;SDS011;1243;54.298;10.172;2023-03-23T01:18:03;17.20;;;13.30;;
2462;SDS011;1243;54.298;10.172;2023-03-23T01:20:29;20.17;;;13.60;;
2462;SDS011;1243;54.298;10.172;2023-03-23T01:22:56;18.40;;;13.23;;
2462;SDS011;1243;54.298;10.172;2023-03-23T01:25:26;23.03;;;13.00;;
2462;SDS011;1243;54.298;10.172;2023-03-23T01:27:56;18.63;;;11.30;;
2462;SDS011;1243;54.298;10.172;2023-03-23T01:30:22;14.23;;;10.57;;
2462;SDS011;1243;54.298;10.172;2023-03-23T01:32:49;20.10;;;10.97;;
2462;SDS011;1243;54.298;10.172;2023-03-23T01:35:15;14.33;;;8.97;;
2462;SDS011;1243;54.298;10.172;2023-03-23T01:37:41;10.40;;;8.90;;
2462;SDS011;1243;54.298;10.172;2023-03-23T01:40:07;11.30;;;8.20;;
2462;SDS011;1243;54.298;10.172;2023-03-23T01:42:35;10.20;;;8.03;;
2462;SDS011;1243;54.298;10.172;2023-03-23T01:50:30;8.70;;;6.83;;
2462;SDS011;1243;54.298;10.172;2023-03-23T01:53:01;9.27;;;6.87;;
2462;SDS011;1243;54.298;10.172;2023-03-23T01:55:29;9.20;;;7.03;;
2462;SDS011;1243;54.298;10.172;2023-03-23T01:57:55;9.93;;;7.03;;
2462;SDS011;1243;54.298;10.172;2023-03-23T02:00:22;7.50;;;6.43;;
2462;SDS011;1243;54.298;10.172;2023-03-23T02:02:49;8.43;;;6.80;;
2462;SDS011;1243;54.298;10.172;2023-03-23T02:05:23;6.70;;;5.90;;
2462;SDS011;1243;54.298;10.172;2023-03-23T02:08:02;8.37;;;6.30;;
2462;SDS011;1243;54.298;10.172;2023-03-23T02:10:31;7.10;;;6.40;;
2462;SDS011;1243;54.298;10.172;2023-03-23T02:12:58;6.60;;;6.00;;
2462;SDS011;1243;54.298;10.172;2023-03-23T02:15:26;8.73;;;6.70;;
2462;SDS011;1243;54.298;10.172;2023-03-23T02:29:03;10.70;;;8.30;;
2462;SDS011;1243;54.298;10.172;2023-03-23T02:34:42;13.60;;;8.80;;
2462;SDS011;1243;54.298;10.172;2023-03-23T02:37:16;9.00;;;8.10;;
2462;SDS011;1243;54.298;10.172;2023-03-23T02:39:54;16.20;;;9.63;;
2462;SDS011;1243;54.298;10.172;2023-03-23T02:42:28;10.40;;;9.20;;
2462;SDS011;1243;54.298;10.172;2023-03-23T02:44:56;11.63;;;8.47;;
2462;SDS011;1243;54.298;10.172;2023-03-23T02:47:29;12.97;;;9.33;;
2462;SDS011;1243;54.298;10.172;2023-03-23T02:49:55;13.33;;;9.10;;
2462;SDS011;1243;54.298;10.172;2023-03-23T02:52:27;10.00;;;7.87;;
2462;SDS011;1243;54.298;10.172;2023-03-23T02:54:56;9.83;;;7.93;;
2462;SDS011;1243;54.298;10.172;2023-03-23T02:57:24;12.83;;;8.80;;
2462;SDS011;1243;54.298;10.172;2023-03-23T02:59:52;9.40;;;7.80;;
2462;SDS011;1243;54.298;10.172;2023-03-23T03:02:19;9.30;;;7.10;;
2462;SDS011;1243;54.298;10.172;2023-03-23T03:05:01;8.40;;;7.10;;
2462;SDS011;1243;54.298;10.172;2023-03-23T03:10:29;9.40;;;6.20;;
2462;SDS011;1243;54.298;10.172;2023-03-23T03:16:06;7.10;;;5.93;;
2462;SDS011;1243;54.298;10.172;2023-03-23T03:18:50;7.23;;;5.30;;
2462;SDS011;1243;54.298;10.172;2023-03-23T03:21:28;6.60;;;6.00;;
2462;SDS011;1243;54.298;10.172;2023-03-23T03:23:58;6.60;;;6.00;;
2462;SDS011;1243;54.298;10.172;2023-03-23T03:26:25;5.80;;;5.20;;
2462;SDS011;1243;54.298;10.172;2023-03-23T03:28:53;4.90;;;4.37;;
2462;SDS011;1243;54.298;10.172;2023-03-23T03:31:20;4.93;;;4.33;;
2462;SDS011;1243;54.298;10.172;2023-03-23T03:33:58;4.70;;;4.27;;
2462;SDS011;1243;54.298;10.172;2023-03-23T03:36:27;4.80;;;4.30;;
2462;SDS011;1243;54.298;10.172;2023-03-23T03:39:00;4.13;;;3.73;;
2462;SDS011;1243;54.298;10.172;2023-03-23T03:41:33;4.23;;;3.80;;
2462;SDS011;1243;54.298;10.172;2023-03-23T03:44:00;5.60;;;4.70;;
2462;SDS011;1243;54.298;10.172;2023-03-23T03:46:26;4.90;;;4.10;;
2462;SDS011;1243;54.298;10.172;2023-03-23T03:48:55;5.20;;;4.40;;
2462;SDS011;1243;54.298;10.172;2023-03-23T03:51:24;4.70;;;4.20;;
2462;SDS011;1243;54.298;10.172;2023-03-23T03:53:52;11.57;;;4.10;;
2462;SDS011;1243;54.298;10.172;2023-03-23T03:56:19;6.43;;;5.13;;
2462;SDS011;1243;54.298;10.172;2023-03-23T03:58:46;4.40;;;3.97;;
2462;SDS011;1243;54.298;10.172;2023-03-23T04:01:13;5.07;;;4.07;;
2462;SDS011;1243;54.298;10.172;2023-03-23T04:03:41;4.40;;;3.83;;
2462;SDS011;1243;54.298;10.172;2023-03-23T04:06:08;3.77;;;3.47;;
2462;SDS011;1243;54.298;10.172;2023-03-23T04:08:35;3.60;;;3.30;;
2462;SDS011;1243;54.298;10.172;2023-03-23T04:11:06;4.37;;;3.30;;
2462;SDS011;1243;54.298;10.172;2023-03-23T04:13:33;3.03;;;2.43;;
2462;SDS011;1243;54.298;10.172;2023-03-23T04:15:59;3.00;;;2.43;;
2462;SDS011;1243;54.298;10.172;2023-03-23T04:18:25;4.10;;;2.60;;
2462;SDS011;1243;54.298;10.172;2023-03-23T04:20:51;1.73;;;1.63;;
2462;SDS011;1243;54.298;10.172;2023-03-23T04:23:17;2.30;;;2.10;;
2462;SDS011;1243;54.298;10.172;2023-03-23T04:25:51;2.10;;;1.83;;
2462;SDS011;1243;54.298;10.172;2023-03-23T04:28:22;2.10;;;1.97;;
2462;SDS011;1243;54.298;10.172;2023-03-23T04:30:49;2.40;;;2.20;;
2462;SDS011;1243;54.298;10.172;2023-03-23T04:33:20;3.80;;;2.67;;
2462;SDS011;1243;54.298;10.172;2023-03-23T04:35:50;2.80;;;1.83;;
2462;SDS011;1243;54.298;10.172;2023-03-23T04:38:16;2.27;;;1.87;;
2462;SDS011;1243;54.298;10.172;2023-03-23T04:40:46;1.80;;;1.70;;
2462;SDS011;1243;54.298;10.172;2023-03-23T04:43:13;2.40;;;1.77;;
2462;SDS011;1243;54.298;10.172;2023-03-23T04:45:40;3.77;;;2.00;;
2462;SDS011;1243;54.298;10.172;2023-03-23T04:48:10;2.00;;;1.70;;
2462;SDS011;1243;54.298;10.172;2023-03-23T04:50:36;1.70;;;1.60;;
2462;SDS011;1243;54.298;10.172;2023-03-23T04:53:03;3.33;;;1.90;;
2462;SDS011;1243;54.298;10.172;2023-03-23T04:55:30;1.33;;;1.23;;
2462;SDS011;1243;54.298;10.172;2023-03-23T04:58:01;3.30;;;1.50;;
2462;SDS011;1243;54.298;10.172;2023-03-23T05:00:27;1.90;;;1.80;;
2462;SDS011;1243;54.298;10.172;2023-03-23T05:02:54;1.90;;;1.80;;
2462;SDS011;1243;54.298;10.172;2023-03-23T05:05:21;6.10;;;1.50;;
2462;SDS011;1243;54.298;10.172;2023-03-23T05:07:48;2.53;;;1.57;;
2462;SDS011;1243;54.298;10.172;2023-03-23T05:10:14;2.00;;;1.80;;
2462;SDS011;1243;54.298;10.172;2023-03-23T05:12:41;2.00;;;1.90;;
2462;SDS011;1243;54.298;10.172;2023-03-23T05:15:08;2.30;;;2.10;;
2462;SDS011;1243;54.298;10.172;2023-03-23T05:17:35;1.80;;;1.70;;
2462;SDS011;1243;54.298;10.172;2023-03-23T05:20:02;1.43;;;1.33;;
2462;SDS011;1243;54.298;10.172;2023-03-23T05:22:32;2.03;;;1.83;;
2462;SDS011;1243;54.298;10.172;2023-03-23T05:24:58;2.10;;;2.00;;
2462;SDS011;1243;54.298;10.172;2023-03-23T05:27:27;3.60;;;3.30;;
2462;SDS011;1243;54.298;10.172;2023-03-23T05:29:55;3.40;;;3.10;;
2462;SDS011;1243;54.298;10.172;2023-03-23T05:32:24;3.80;;;3.50;;
2462;SDS011;1243;54.298;10.172;2023-03-23T05:34:59;4.80;;;4.43;;
2462;SDS011;1243;54.298;10.172;2023-03-23T05:37:27;4.80;;;4.40;;
2462;SDS011;1243;54.298;10.172;2023-03-23T05:39:59;7.03;;;5.50;;
2462;SDS011;1243;54.298;10.172;2023-03-23T05:42:30;6.00;;;5.50;;
2462;SDS011;1243;54.298;10.172;2023-03-23T05:44:57;8.87;;;6.30;;
2462;SDS011;1243;54.298;10.172;2023-03-23T05:47:24;10.93;;;6.90;;
2462;SDS011;1243;54.298;10.172;2023-03-23T05:49:50;8.30;;;7.40;;
2462;SDS011;1243;54.298;10.172;2023-03-23T05:52:17;9.63;;;8.10;;
2462;SDS011;1243;54.298;10.172;2023-03-23T05:54:43;13.00;;;9.50;;
2462;SDS011;1243;54.298;10.172;2023-03-23T05:57:09;10.93;;;9.83;;
2462;SDS011;1243;54.298;10.172;2023-03-23T05:59:36;13.23;;;10.97;;
2462;SDS011;1243;54.298;10.172;2023-03-23T06:02:02;13.97;;;11.57;;
2462;SDS011;1243;54.298;10.172;2023-03-23T06:04:28;13.73;;;10.97;;
2462;SDS011;1243;54.298;10.172;2023-03-23T06:06:54;18.20;;;12.73;;
2462;SDS011;1243;54.298;10.172;2023-03-23T06:09:19;24.23;;;13.20;;
2462;SDS011;1243;54.298;10.172;2023-03-23T06:11:46;17.87;;;13.80;;
2462;SDS011;1243;54.298;10.172;2023-03-23T06:14:12;17.13;;;14.50;;
2462;SDS011;1243;54.298;10.172;2023-03-23T06:16:38;14.73;;;12.77;;
2462;SDS011;1243;54.298;10.172;2023-03-23T06:19:05;17.70;;;15.83;;
2462;SDS011;1243;54.298;10.172;2023-03-23T06:21:30;14.07;;;12.60;;
2462;SDS011;1243;54.298;10.172;2023-03-23T06:23:57;15.83;;;14.17;;
2462;SDS011;1243;54.298;10.172;2023-03-23T06:26:26;20.63;;;15.20;;
2462;SDS011;1243;54.298;10.172;2023-03-23T06:28:56;17.77;;;14.27;;
2462;SDS011;1243;54.298;10.172;2023-03-23T06:31:22;15.60;;;13.33;;
2462;SDS011;1243;54.298;10.172;2023-03-23T06:33:49;21.90;;;13.80;;
2462;SDS011;1243;54.298;10.172;2023-03-23T06:36:15;20.60;;;14.97;;
2462;SDS011;1243;54.298;10.172;2023-03-23T06:38:41;20.03;;;13.70;;
2462;SDS011;1243;54.298;10.172;2023-03-23T06:41:07;16.70;;;13.90;;
2462;SDS011;1243;54.298;10.172;2023-03-23T06:43:33;17.27;;;12.63;;
2462;SDS011;1243;54.298;10.172;2023-03-23T06:46:03;17.10;;;13.80;;
2462;SDS011;1243;54.298;10.172;2023-03-23T06:48:28;17.77;;;12.90;;
2462;SDS011;1243;54.298;10.172;2023-03-23T06:50:54;22.57;;;13.87;;
2462;SDS011;1243;54.298;10.172;2023-03-23T06:53:20;17.40;;;14.60;;
2462;SDS011;1243;54.298;10.172;2023-03-23T06:55:46;24.10;;;14.53;;
2462;SDS011;1243;54.298;10.172;2023-03-23T06:58:11;18.83;;;13.37;;
2462;SDS011;1243;54.298;10.172;2023-03-23T07:00:37;19.00;;;13.53;;
2462;SDS011;1243;54.298;10.172;2023-03-23T07:03:05;18.47;;;14.60;;
2462;SDS011;1243;54.298;10.172;2023-03-23T07:05:32;22.87;;;14.50;;
2462;SDS011;1243;54.298;10.172;2023-03-23T07:07:59;16.37;;;11.13;;
2462;SDS011;1243;54.298;10.172;2023-03-23T07:10:24;13.97;;;12.47;;
2462;SDS011;1243;54.298;10.172;2023-03-23T07:12:50;15.23;;;12.17;;
2462;SDS011;1243;54.298;10.172;2023-03-23T07:15:16;15.20;;;11.37;;
2462;SDS011;1243;54.298;10.172;2023-03-23T07:17:42;18.73;;;13.47;;
2462;SDS011;1243;54.298;10.172;2023-03-23T07:20:08;14.07;;;11.17;;
2462;SDS011;1243;54.298;10.172;2023-03-23T07:22:34;19.03;;;11.73;;
2462;SDS011;1243;54.298;10.172;2023-03-23T07:25:00;14.00;;;11.87;;
2462;SDS011;1243;54.298;10.172;2023-03-23T07:27:26;10.33;;;9.17;;
2462;SDS011;1243;54.298;10.172;2023-03-23T07:29:52;13.77;;;10.53;;
2462;SDS011;1243;54.298;10.172;2023-03-23T07:32:18;14.60;;;11.27;;
2462;SDS011;1243;54.298;10.172;2023-03-23T07:34:44;16.90;;;12.67;;
2462;SDS011;1243;54.298;10.172;2023-03-23T07:37:09;15.20;;;12.70;;
2462;SDS011;1243;54.298;10.172;2023-03-23T07:39:35;11.17;;;9.97;;
2462;SDS011;1243;54.298;10.172;2023-03-23T07:42:01;11.60;;;10.27;;
2462;SDS011;1243;54.298;10.172;2023-03-23T07:44:27;12.10;;;9.97;;
2462;SDS011;1243;54.298;10.172;2023-03-23T07:46:53;11.07;;;8.57;;
2462;SDS011;1243;54.298;10.172;2023-03-23T07:49:19;15.30;;;9.40;;
2462;SDS011;1243;54.298;10.172;2023-03-23T07:51:45;13.90;;;9.40;;
2462;SDS011;1243;54.298;10.172;2023-03-23T07:54:11;8.00;;;7.30;;
2462;SDS011;1243;54.298;10.172;2023-03-23T07:56:39;8.20;;;7.23;;
2462;SDS011;1243;54.298;10.172;2023-03-23T07:59:05;11.50;;;7.57;;
2462;SDS011;1243;54.298;10.172;2023-03-23T08:01:31;9.10;;;6.43;;
2462;SDS011;1243;54.298;10.172;2023-03-23T08:03:58;8.17;;;6.47;;
2462;SDS011;1243;54.298;10.172;2023-03-23T08:06:24;9.07;;;6.10;;
2462;SDS011;1243;54.298;10.172;2023-03-23T08:08:50;10.53;;;6.10;;
2462;SDS011;1243;54.298;10.172;2023-03-23T08:11:17;6.57;;;5.20;;
2462;SDS011;1243;54.298;10.172;2023-03-23T08:13:44;8.67;;;4.63;;
2462;SDS011;1243;54.298;10.172;2023-03-23T08:16:10;7.53;;;4.57;;
2462;SDS011;1243;54.298;10.172;2023-03-23T08:18:36;3.87;;;3.50;;
2462;SDS011;1243;54.298;10.172;2023-03-23T08:21:04;9.30;;;3.77;;
2462;SDS011;1243;54.298;10.172;2023-03-23T08:23:31;6.80;;;4.33;;
2462;SDS011;1243;54.298;10.172;2023-03-23T08:25:58;8.00;;;4.27;;
2462;SDS011;1243;54.298;10.172;2023-03-23T08:28:24;4.10;;;2.83;;
2462;SDS011;1243;54.298;10.172;2023-03-23T08:30:50;6.00;;;3.10;;
2462;SDS011;1243;54.298;10.172;2023-03-23T08:33:16;5.37;;;3.40;;
2462;SDS011;1243;54.298;10.172;2023-03-23T08:35:43;8.73;;;3.13;;
2462;SDS011;1243;54.298;10.172;2023-03-23T08:38:09;4.07;;;2.53;;
2462;SDS011;1243;54.298;10.172;2023-03-23T08:40:36;7.73;;;3.33;;
2462;SDS011;1243;54.298;10.172;2023-03-23T08:43:02;5.40;;;3.00;;
2462;SDS011;1243;54.298;10.172;2023-03-23T08:45:29;3.60;;;2.50;;
2462;SDS011;1243;54.298;10.172;2023-03-23T08:47:55;3.60;;;2.90;;
2462;SDS011;1243;54.298;10.172;2023-03-23T08:50:25;8.07;;;2.97;;
2462;SDS011;1243;54.298;10.172;2023-03-23T08:52:52;3.27;;;2.93;;
2462;SDS011;1243;54.298;10.172;2023-03-23T08:55:19;5.90;;;2.57;;
2462;SDS011;1243;54.298;10.172;2023-03-23T08:57:46;10.00;;;2.60;;
2462;SDS011;1243;54.298;10.172;2023-03-23T09:00:17;5.33;;;2.70;;
2462;SDS011;1243;54.298;10.172;2023-03-23T09:02:48;3.77;;;2.07;;
2462;SDS011;1243;54.298;10.172;2023-03-23T09:05:17;3.50;;;2.73;;
2462;SDS011;1243;54.298;10.172;2023-03-23T09:07:45;15.47;;;3.73;;
2462;SDS011;1243;54.298;10.172;2023-03-23T09:10:13;9.70;;;3.60;;
2462;SDS011;1243;54.298;10.172;2023-03-23T09:12:40;13.20;;;3.93;;
2462;SDS011;1243;54.298;10.172;2023-03-23T09:15:07;8.43;;;3.30;;
2462;SDS011;1243;54.298;10.172;2023-03-23T09:17:38;4.13;;;2.07;;
2462;SDS011;1243;54.298;10.172;2023-03-23T09:20:07;7.40;;;2.90;;
2462;SDS011;1243;54.298;10.172;2023-03-23T09:22:38;5.40;;;3.20;;
2462;SDS011;1243;54.298;10.172;2023-03-23T09:25:07;4.00;;;2.77;;
2462;SDS011;1243;54.298;10.172;2023-03-23T09:27:34;8.63;;;2.80;;
2462;SDS011;1243;54.298;10.172;2023-03-23T09:30:03;5.50;;;2.43;;
2462;SDS011;1243;54.298;10.172;2023-03-23T09:32:32;5.40;;;2.00;;
2462;SDS011;1243;54.298;10.172;2023-03-23T09:35:00;6.20;;;2.70;;
2462;SDS011;1243;54.298;10.172;2023-03-23T09:37:27;4.30;;;2.00;;
2462;SDS011;1243;54.298;10.172;2023-03-23T09:39:54;8.77;;;3.13;;
2462;SDS011;1243;54.298;10.172;2023-03-23T09:42:32;5.10;;;2.13;;
2462;SDS011;1243;54.298;10.172;2023-03-23T09:50:43;12.37;;;3.07;;
2462;SDS011;1243;54.298;10.172;2023-03-23T09:53:16;2.77;;;2.40;;
2462;SDS011;1243;54.298;10.172;2023-03-23T09:55:46;18.37;;;4.27;;
2462;SDS011;1243;54.298;10.172;2023-03-23T10:01:02;6.77;;;2.50;;
2462;SDS011;1243;54.298;10.172;2023-03-23T10:03:45;6.33;;;1.93;;
2462;SDS011;1243;54.298;10.172;2023-03-23T10:06:16;7.67;;;2.60;;
2462;SDS011;1243;54.298;10.172;2023-03-23T10:08:47;2.43;;;2.23;;
2462;SDS011;1243;54.298;10.172;2023-03-23T10:11:33;12.03;;;2.70;;
2462;SDS011;1243;54.298;10.172;2023-03-23T10:14:26;2.90;;;1.80;;
2462;SDS011;1243;54.298;10.172;2023-03-23T10:17:03;4.87;;;2.23;;
2462;SDS011;1243;54.298;10.172;2023-03-23T10:19:55;8.83;;;2.17;;
2462;SDS011;1243;54.298;10.172;2023-03-23T10:22:34;6.40;;;2.60;;
2462;SDS011;1243;54.298;10.172;2023-03-23T10:30:17;4.20;;;1.80;;
2462;SDS011;1243;54.298;10.172;2023-03-23T10:35:30;4.93;;;2.50;;
2462;SDS011;1243;54.298;10.172;2023-03-23T10:38:13;5.17;;;2.40;;
2462;SDS011;1243;54.298;10.172;2023-03-23T10:40:46;8.77;;;3.50;;
2462;SDS011;1243;54.298;10.172;2023-03-23T10:43:25;6.67;;;2.30;;
2462;SDS011;1243;54.298;10.172;2023-03-23T10:45:56;4.73;;;1.93;;
2462;SDS011;1243;54.298;10.172;2023-03-23T10:48:35;6.93;;;2.90;;
2462;SDS011;1243;54.298;10.172;2023-03-23T10:51:03;5.07;;;1.87;;
2462;SDS011;1243;54.298;10.172;2023-03-23T10:53:38;6.80;;;2.57;;
2462;SDS011;1243;54.298;10.172;2023-03-23T10:56:23;5.33;;;2.00;;
2462;SDS011;1243;54.298;10.172;2023-03-23T10:58:59;6.60;;;2.00;;
2462;SDS011;1243;54.298;10.172;2023-03-23T11:01:36;12.07;;;3.90;;
2462;SDS011;1243;54.298;10.172;2023-03-23T11:04:02;7.63;;;1.90;;
2462;SDS011;1243;54.298;10.172;2023-03-23T11:06:29;6.00;;;2.33;;
2462;SDS011;1243;54.298;10.172;2023-03-23T11:09:08;5.00;;;2.50;;
2462;SDS011;1243;54.298;10.172;2023-03-23T11:11:40;10.67;;;2.50;;
2462;SDS011;1243;54.298;10.172;2023-03-23T11:14:27;4.13;;;2.00;;
2462;SDS011;1243;54.298;10.172;2023-03-23T11:16:55;4.03;;;2.27;;
2462;SDS011;1243;54.298;10.172;2023-03-23T11:19:22;14.40;;;2.60;;
2462;SDS011;1243;54.298;10.172;2023-03-23T11:21:49;8.60;;;1.87;;
2462;SDS011;1243;54.298;10.172;2023-03-23T11:24:17;5.43;;;1.80;;
2462;SDS011;1243;54.298;10.172;2023-03-23T11:26:44;3.47;;;1.83;;
2462;SDS011;1243;54.298;10.172;2023-03-23T11:31:44;5.40;;;1.70;;
2462;SDS011;1243;54.298;10.172;2023-03-23T11:37:10;5.63;;;2.20;;
2462;SDS011;1243;54.298;10.172;2023-03-23T11:39:48;11.47;;;3.03;;
2462;SDS011;1243;54.298;10.172;2023-03-23T11:42:20;13.63;;;2.60;;
2462;SDS011;1243;54.298;10.172;2023-03-23T11:44:55;7.90;;;2.23;;
2462;SDS011;1243;54.298;10.172;2023-03-23T11:50:23;5.23;;;1.90;;
2462;SDS011;1243;54.298;10.172;2023-03-23T11:55:26;10.33;;;2.07;;
2462;SDS011;1243;54.298;10.172;2023-03-23T11:58:00;4.40;;;2.80;;
2462;SDS011;1243;54.298;10.172;2023-03-23T12:00:30;4.57;;;2.50;;
2462;SDS011;1243;54.298;10.172;2023-03-23T12:16:49;4.80;;;2.50;;
2462;SDS011;1243;54.298;10.172;2023-03-23T12:27:14;7.37;;;3.57;;
2462;SDS011;1243;54.298;10.172;2023-03-23T12:33:48;6.03;;;2.13;;
2462;SDS011;1243;54.298;10.172;2023-03-23T12:36:05;15.03;;;2.80;;
2462;SDS011;1243;54.298;10.172;2023-03-23T12:41:29;12.33;;;2.77;;
2462;SDS011;1243;54.298;10.172;2023-03-23T12:44:10;9.30;;;2.20;;
2462;SDS011;1243;54.298;10.172;2023-03-23T12:57:31;10.87;;;2.93;;
2462;SDS011;1243;54.298;10.172;2023-03-23T13:00:12;6.70;;;2.70;;
2462;SDS011;1243;54.298;10.172;2023-03-23T13:11:41;11.33;;;3.00;;
2462;SDS011;1243;54.298;10.172;2023-03-23T13:14:16;11.57;;;2.90;;
2462;SDS011;1243;54.298;10.172;2023-03-23T13:19:51;7.40;;;2.73;;
2462;SDS011;1243;54.298;10.172;2023-03-23T13:25:02;8.53;;;2.80;;
2462;SDS011;1243;54.298;10.172;2023-03-23T13:27:34;14.00;;;2.73;;
2462;SDS011;1243;54.298;10.172;2023-03-23T13:30:00;15.43;;;3.43;;
2462;SDS011;1243;54.298;10.172;2023-03-23T13:32:30;10.23;;;2.73;;
2462;SDS011;1243;54.298;10.172;2023-03-23T13:34:56;8.00;;;2.53;;
2462;SDS011;1243;54.298;10.172;2023-03-23T13:37:25;9.10;;;2.97;;
2462;SDS011;1243;54.298;10.172;2023-03-23T13:39:57;11.93;;;3.73;;
2462;SDS011;1243;54.298;10.172;2023-03-23T13:42:27;12.97;;;3.43;;
2462;SDS011;1243;54.298;10.172;2023-03-23T13:47:48;12.53;;;3.13;;
2462;SDS011;1243;54.298;10.172;2023-03-23T14:06:10;9.30;;;3.63;;
2462;SDS011;1243;54.298;10.172;2023-03-23T14:08:41;14.00;;;3.47;;
2462;SDS011;1243;54.298;10.172;2023-03-23T14:11:10;16.97;;;3.67;;
2462;SDS011;1243;54.298;10.172;2023-03-23T14:16:32;11.33;;;3.13;;
2462;SDS011;1243;54.298;10.172;2023-03-23T14:19:16;8.73;;;2.80;;
2462;SDS011;1243;54.298;10.172;2023-03-23T14:21:55;9.50;;;3.47;;
2462;SDS011;1243;54.298;10.172;2023-03-23T14:24:24;6.80;;;3.17;;
2462;SDS011;1243;54.298;10.172;2023-03-23T14:26:52;6.07;;;2.40;;
2462;SDS011;1243;54.298;10.172;2023-03-23T14:29:26;15.63;;;5.27;;
2462;SDS011;1243;54.298;10.172;2023-03-23T14:31:55;12.97;;;3.90;;
2462;SDS011;1243;54.298;10.172;2023-03-23T14:34:22;7.03;;;2.30;;
2462;SDS011;1243;54.298;10.172;2023-03-23T14:36:52;14.13;;;2.80;;
2462;SDS011;1243;54.298;10.172;2023-03-23T14:39:31;7.60;;;2.73;;
2462;SDS011;1243;54.298;10.172;2023-03-23T14:42:09;14.17;;;3.23;;
2462;SDS011;1243;54.298;10.172;2023-03-23T14:44:48;13.27;;;3.37;;
2462;SDS011;1243;54.298;10.172;2023-03-23T14:47:25;14.63;;;3.57;;
2462;SDS011;1243;54.298;10.172;2023-03-23T14:49:57;10.50;;;2.73;;
2462;SDS011;1243;54.298;10.172;2023-03-23T14:52:26;10.17;;;3.00;;
2462;SDS011;1243;54.298;10.172;2023-03-23T14:54:53;15.83;;;4.63;;
2462;SDS011;1243;54.298;10.172;2023-03-23T14:59:49;13.13;;;4.50;;
2462;SDS011;1243;54.298;10.172;2023-03-23T15:05:03;7.60;;;2.70;;
2462;SDS011;1243;54.298;10.172;2023-03-23T15:07:41;10.07;;;3.10;;
2462;SDS011;1243;54.298;10.172;2023-03-23T15:10:14;21.03;;;3.83;;
2462;SDS011;1243;54.298;10.172;2023-03-23T15:12:43;11.30;;;4.70;;
2462;SDS011;1243;54.298;10.172;2023-03-23T15:15:20;9.20;;;3.03;;
2462;SDS011;1243;54.298;10.172;2023-03-23T15:17:51;14.47;;;4.37;;
2462;SDS011;1243;54.298;10.172;2023-03-23T15:20:28;9.63;;;4.47;;
2462;SDS011;1243;54.298;10.172;2023-03-23T15:23:14;16.20;;;3.93;;
2462;SDS011;1243;54.298;10.172;2023-03-23T15:25:50;17.07;;;3.43;;
2462;SDS011;1243;54.298;10.172;2023-03-23T15:28:17;18.03;;;3.93;;
2462;SDS011;1243;54.298;10.172;2023-03-23T15:30:55;18.10;;;3.77;;
2462;SDS011;1243;54.298;10.172;2023-03-23T15:33:24;14.20;;;5.63;;
2462;SDS011;1243;54.298;10.172;2023-03-23T15:35:55;14.87;;;3.70;;
2462;SDS011;1243;54.298;10.172;2023-03-23T15:38:23;8.30;;;3.40;;
2462;SDS011;1243;54.298;10.172;2023-03-23T15:40:54;13.17;;;3.40;;
2462;SDS011;1243;54.298;10.172;2023-03-23T15:43:23;12.70;;;3.73;;
2462;SDS011;1243;54.298;10.172;2023-03-23T15:45:59;9.73;;;3.30;;
2462;SDS011;1243;54.298;10.172;2023-03-23T15:48:33;12.83;;;4.90;;
2462;SDS011;1243;54.298;10.172;2023-03-23T15:51:20;9.87;;;3.43;;
2462;SDS011;1243;54.298;10.172;2023-03-23T15:53:49;14.80;;;4.53;;
2462;SDS011;1243;54.298;10.172;2023-03-23T15:56:16;12.07;;;3.80;;
2462;SDS011;1243;54.298;10.172;2023-03-23T15:58:43;8.63;;;3.37;;
2462;SDS011;1243;54.298;10.172;2023-03-23T16:01:13;13.40;;;3.80;;
2462;SDS011;1243;54.298;10.172;2023-03-23T16:03:51;13.00;;;3.37;;
2462;SDS011;1243;54.298;10.172;2023-03-23T16:06:18;15.13;;;3.67;;
2462;SDS011;1243;54.298;10.172;2023-03-23T16:08:45;19.50;;;3.80;;
2462;SDS011;1243;54.298;10.172;2023-03-23T16:11:15;15.47;;;4.13;;
2462;SDS011;1243;54.298;10.172;2023-03-23T16:13:42;9.40;;;4.83;;
2462;SDS011;1243;54.298;10.172;2023-03-23T16:16:31;10.87;;;3.00;;
2462;SDS011;1243;54.298;10.172;2023-03-23T16:18:59;12.03;;;4.07;;
2462;SDS011;1243;54.298;10.172;2023-03-23T16:21:24;13.33;;;3.43;;
2462;SDS011;1243;54.298;10.172;2023-03-23T16:23:50;14.13;;;3.03;;
2462;SDS011;1243;54.298;10.172;2023-03-23T16:26:16;16.80;;;3.23;;
2462;SDS011;1243;54.298;10.172;2023-03-23T16:28:43;10.77;;;3.53;;
2462;SDS011;1243;54.298;10.172;2023-03-23T16:31:09;14.93;;;3.17;;
2462;SDS011;1243;54.298;10.172;2023-03-23T16:33:35;15.60;;;3.70;;
2462;SDS011;1243;54.298;10.172;2023-03-23T16:36:01;15.23;;;3.50;;
2462;SDS011;1243;54.298;10.172;2023-03-23T16:38:27;17.50;;;4.50;;
2462;SDS011;1243;54.298;10.172;2023-03-23T16:40:52;10.47;;;4.90;;
2462;SDS011;1243;54.298;10.172;2023-03-23T16:43:18;6.50;;;3.50;;
2462;SDS011;1243;54.298;10.172;2023-03-23T16:45:45;8.73;;;2.77;;
2462;SDS011;1243;54.298;10.172;2023-03-23T16:48:12;17.00;;;4.17;;
2462;SDS011;1243;54.298;10.172;2023-03-23T16:50:40;17.37;;;3.47;;
2462;SDS011;1243;54.298;10.172;2023-03-23T16:53:07;17.63;;;3.97;;
2462;SDS011;1243;54.298;10.172;2023-03-23T16:55:34;14.40;;;3.90;;
2462;SDS011;1243;54.298;10.172;2023-03-23T16:58:01;15.53;;;3.73;;
2462;SDS011;1243;54.298;10.172;2023-03-23T17:00:27;10.07;;;4.20;;
2462;SDS011;1243;54.298;10.172;2023-03-23T17:02:53;12.23;;;3.87;;
2462;SDS011;1243;54.298;10.172;2023-03-23T17:05:22;13.03;;;3.20;;
2462;SDS011;1243;54.298;10.172;2023-03-23T17:07:50;10.27;;;3.50;;
2462;SDS011;1243;54.298;10.172;2023-03-23T17:10:16;10.17;;;3.87;;
2462;SDS011;1243;54.298;10.172;2023-03-23T17:12:43;16.77;;;4.07;;
2462;SDS011;1243;54.298;10.172;2023-03-23T17:15:09;12.20;;;4.00;;
2462;SDS011;1243;54.298;10.172;2023-03-23T17:17:35;16.43;;;5.50;;
2462;SDS011;1243;54.298;10.172;2023-03-23T17:20:01;15.10;;;3.43;;